sensor_id;sensor_type;location;lat;lon;timestamp;temperature;humidity
57709;SHT35;42558;52.388;13.390;2023-02-15T00:01:08;1.40;87.07
57709;SHT35;42558;52.388;13.390;2023-02-15T00:03:40;1.34;87.20
57709;SHT35;42558;52.388;13.390;2023-02-15T00:06:10;1.29;87.25
57709;SHT35;42558;52.388;13.390;2023-02-15T00:08:40;1.22;87.30
57709;SHT35;42558;52.388;13.390;2023-02-15T00:11:10;1.15;87.31
57709;SHT35;42558;52.388;13.390;2023-02-15T00:13:44;1.09;87.34
57709;SHT35;42558;52.388;13.390;2023-02-15T00:16:13;1.05;87.48
57709;SHT35;42558;52.388;13.390;2023-02-15T00:18:41;1.00;87.56
57709;SHT35;42558;52.388;13.390;2023-02-15T00:21:10;0.95;87.60
57709;SHT35;42558;52.388;13.390;2023-02-15T00:23:38;0.92;87.71
57709;SHT35;42558;52.388;13.390;2023-02-15T00:26:07;0.86;87.72
57709;SHT35;42558;52.388;13.390;2023-02-15T00:28:41;0.82;87.85
57709;SHT35;42558;52.388;13.390;2023-02-15T00:31:11;0.77;87.91
57709;SHT35;42558;52.388;13.390;2023-02-15T00:33:42;0.72;87.96
57709;SHT35;42558;52.388;13.390;2023-02-15T00:36:11;0.67;88.03
57709;SHT35;42558;52.388;13.390;2023-02-15T00:38:42;0.64;88.10
57709;SHT35;42558;52.388;13.390;2023-02-15T00:41:12;0.59;88.18
57709;SHT35;42558;52.388;13.390;2023-02-15T00:43:42;0.57;88.34
57709;SHT35;42558;52.388;13.390;2023-02-15T00:46:12;0.54;88.39
57709;SHT35;42558;52.388;13.390;2023-02-15T00:48:42;0.50;88.42
57709;SHT35;42558;52.388;13.390;2023-02-15T00:51:12;0.47;88.50
57709;SHT35;42558;52.388;13.390;2023-02-15T00:53:40;0.43;88.51
57709;SHT35;42558;52.388;13.390;2023-02-15T00:56:09;0.39;88.54
57709;SHT35;42558;52.388;13.390;2023-02-15T00:58:37;0.32;88.50
57709;SHT35;42558;52.388;13.390;2023-02-15T01:01:07;0.25;88.50
57709;SHT35;42558;52.388;13.390;2023-02-15T01:03:37;0.22;88.57
57709;SHT35;42558;52.388;13.390;2023-02-15T01:06:06;0.23;88.76
57709;SHT35;42558;52.388;13.390;2023-02-15T01:08:34;0.21;88.80
57709;SHT35;42558;52.388;13.390;2023-02-15T01:11:07;0.15;88.78
57709;SHT35;42558;52.388;13.390;2023-02-15T01:13:40;0.11;88.81
57709;SHT35;42558;52.388;13.390;2023-02-15T01:16:08;0.08;88.88
57709;SHT35;42558;52.388;13.390;2023-02-15T01:18:37;0.05;88.94
57709;SHT35;42558;52.388;13.390;2023-02-15T01:21:09;0.02;89.00
57709;SHT35;42558;52.388;13.390;2023-02-15T01:23:49;-0.02;88.91
57709;SHT35;42558;52.388;13.390;2023-02-15T01:26:19;-0.04;88.98
57709;SHT35;42558;52.388;13.390;2023-02-15T01:28:49;-0.06;89.07
57709;SHT35;42558;52.388;13.390;2023-02-15T01:31:20;-0.12;88.99
57709;SHT35;42558;52.388;13.390;2023-02-15T01:33:50;-0.18;89.00
57709;SHT35;42558;52.388;13.390;2023-02-15T01:36:20;-0.21;89.12
57709;SHT35;42558;52.388;13.390;2023-02-15T01:38:50;-0.22;89.20
57709;SHT35;42558;52.388;13.390;2023-02-15T01:41:20;-0.24;89.20
57709;SHT35;42558;52.388;13.390;2023-02-15T01:43:52;-0.28;89.24
57709;SHT35;42558;52.388;13.390;2023-02-15T01:46:38;-0.29;89.37
57709;SHT35;42558;52.388;13.390;2023-02-15T01:49:21;-0.31;89.46
57709;SHT35;42558;52.388;13.390;2023-02-15T01:51:56;-0.34;89.43
57709;SHT35;42558;52.388;13.390;2023-02-15T01:54:31;-0.40;89.34
57709;SHT35;42558;52.388;13.390;2023-02-15T01:57:07;-0.41;89.48
57709;SHT35;42558;52.388;13.390;2023-02-15T01:59:45;-0.43;89.51
57709;SHT35;42558;52.388;13.390;2023-02-15T02:02:20;-0.44;89.59
57709;SHT35;42558;52.388;13.390;2023-02-15T02:04:58;-0.44;89.61
57709;SHT35;42558;52.388;13.390;2023-02-15T02:07:38;-0.43;89.64
57709;SHT35;42558;52.388;13.390;2023-02-15T02:10:15;-0.41;89.70
57709;SHT35;42558;52.388;13.390;2023-02-15T02:12:47;-0.36;89.79
57709;SHT35;42558;52.388;13.390;2023-02-15T02:15:23;-0.34;89.77
57709;SHT35;42558;52.388;13.390;2023-02-15T02:18:35;-0.33;89.71
57709;SHT35;42558;52.388;13.390;2023-02-15T02:21:38;-0.34;89.55
57709;SHT35;42558;52.388;13.390;2023-02-15T02:36:59;-0.38;89.28
57709;SHT35;42558;52.388;13.390;2023-02-15T02:42:43;-0.26;89.50
57709;SHT35;42558;52.388;13.390;2023-02-15T02:45:32;-0.20;89.71
57709;SHT35;42558;52.388;13.390;2023-02-15T02:48:13;-0.09;90.03
57709;SHT35;42558;52.388;13.390;2023-02-15T02:50:50;0.05;90.53
57709;SHT35;42558;52.388;13.390;2023-02-15T02:53:20;0.21;91.14
57709;SHT35;42558;52.388;13.390;2023-02-15T03:01:24;0.04;90.81
57709;SHT35;42558;52.388;13.390;2023-02-15T03:04:07;0.15;91.32
57709;SHT35;42558;52.388;13.390;2023-02-15T03:06:48;0.08;91.19
57709;SHT35;42558;52.388;13.390;2023-02-15T03:09:35;0.03;91.15
57709;SHT35;42558;52.388;13.390;2023-02-15T03:12:18;0.02;91.34
57709;SHT35;42558;52.388;13.390;2023-02-15T03:15:15;0.08;91.50
57709;SHT35;42558;52.388;13.390;2023-02-15T03:17:57;0.02;91.42
57709;SHT35;42558;52.388;13.390;2023-02-15T03:20:32;0.05;91.60
57709;SHT35;42558;52.388;13.390;2023-02-15T03:23:07;0.10;91.84
57709;SHT35;42558;52.388;13.390;2023-02-15T03:25:48;0.06;91.81
57709;SHT35;42558;52.388;13.390;2023-02-15T03:28:30;-0.02;91.68
57709;SHT35;42558;52.388;13.390;2023-02-15T03:31:09;-0.11;91.54
57709;SHT35;42558;52.388;13.390;2023-02-15T03:33:46;-0.18;91.46
57709;SHT35;42558;52.388;13.390;2023-02-15T03:36:26;-0.25;91.47
57709;SHT35;42558;52.388;13.390;2023-02-15T03:45:10;-0.14;91.94
57709;SHT35;42558;52.388;13.390;2023-02-15T03:47:47;-0.19;91.87
57709;SHT35;42558;52.388;13.390;2023-02-15T03:50:23;-0.28;91.72
57709;SHT35;42558;52.388;13.390;2023-02-15T03:53:18;-0.24;91.89
57709;SHT35;42558;52.388;13.390;2023-02-15T03:55:53;-0.22;92.00
57709;SHT35;42558;52.388;13.390;2023-02-15T03:58:24;-0.25;91.92
57709;SHT35;42558;52.388;13.390;2023-02-15T04:01:19;-0.27;91.91
57709;SHT35;42558;52.388;13.390;2023-02-15T04:04:28;-0.25;91.98
57709;SHT35;42558;52.388;13.390;2023-02-15T04:07:04;-0.27;92.02
57709;SHT35;42558;52.388;13.390;2023-02-15T04:09:37;-0.30;91.94
57709;SHT35;42558;52.388;13.390;2023-02-15T04:12:25;-0.35;91.82
57709;SHT35;42558;52.388;13.390;2023-02-15T04:14:55;-0.39;91.77
57709;SHT35;42558;52.388;13.390;2023-02-15T04:17:43;-0.44;91.67
57709;SHT35;42558;52.388;13.390;2023-02-15T04:20:10;-0.50;91.60
57709;SHT35;42558;52.388;13.390;2023-02-15T04:22:57;-0.50;91.61
57709;SHT35;42558;52.388;13.390;2023-02-15T04:25:45;-0.57;91.48
57709;SHT35;42558;52.388;13.390;2023-02-15T04:28:15;-0.58;91.46
57709;SHT35;42558;52.388;13.390;2023-02-15T04:30:46;-0.60;91.49
57709;SHT35;42558;52.388;13.390;2023-02-15T04:33:16;-0.60;91.45
57709;SHT35;42558;52.388;13.390;2023-02-15T04:35:45;-0.60;91.50
57709;SHT35;42558;52.388;13.390;2023-02-15T04:38:15;-0.63;91.45
57709;SHT35;42558;52.388;13.390;2023-02-15T04:40:44;-0.66;91.37
57709;SHT35;42558;52.388;13.390;2023-02-15T04:43:15;-0.69;91.37
57709;SHT35;42558;52.388;13.390;2023-02-15T04:45:50;-0.72;91.36
57709;SHT35;42558;52.388;13.390;2023-02-15T04:48:19;-0.81;91.21
57709;SHT35;42558;52.388;13.390;2023-02-15T04:50:49;-0.87;91.13
57709;SHT35;42558;52.388;13.390;2023-02-15T04:53:19;-0.93;91.04
57709;SHT35;42558;52.388;13.390;2023-02-15T04:55:49;-0.95;91.05
57709;SHT35;42558;52.388;13.390;2023-02-15T04:58:19;-0.96;91.04
57709;SHT35;42558;52.388;13.390;2023-02-15T05:00:49;-0.93;91.16
57709;SHT35;42558;52.388;13.390;2023-02-15T05:03:17;-0.89;91.20
57709;SHT35;42558;52.388;13.390;2023-02-15T05:05:46;-0.77;91.56
57709;SHT35;42558;52.388;13.390;2023-02-15T05:08:14;-0.72;91.93
57709;SHT35;42558;52.388;13.390;2023-02-15T05:10:43;-0.70;91.90
57709;SHT35;42558;52.388;13.390;2023-02-15T05:13:11;-0.71;91.80
57709;SHT35;42558;52.388;13.390;2023-02-15T05:15:40;-0.77;91.80
57709;SHT35;42558;52.388;13.390;2023-02-15T05:18:11;-0.81;91.86
57709;SHT35;42558;52.388;13.390;2023-02-15T05:20:40;-0.83;91.95
57709;SHT35;42558;52.388;13.390;2023-02-15T05:23:08;-0.84;92.08
57709;SHT35;42558;52.388;13.390;2023-02-15T05:25:37;-0.84;92.13
57709;SHT35;42558;52.388;13.390;2023-02-15T05:28:24;-0.85;92.13
57709;SHT35;42558;52.388;13.390;2023-02-15T05:33:46;-0.97;92.54
57709;SHT35;42558;52.388;13.390;2023-02-15T05:36:13;-0.96;92.60
57709;SHT35;42558;52.388;13.390;2023-02-15T05:38:43;-0.96;92.71
57709;SHT35;42558;52.388;13.390;2023-02-15T05:41:13;-1.00;92.80
57709;SHT35;42558;52.388;13.390;2023-02-15T05:43:43;-0.95;92.85
57709;SHT35;42558;52.388;13.390;2023-02-15T05:46:13;-0.97;92.92
57709;SHT35;42558;52.388;13.390;2023-02-15T05:48:43;-0.97;93.00
57709;SHT35;42558;52.388;13.390;2023-02-15T05:51:13;-1.02;93.00
57709;SHT35;42558;52.388;13.390;2023-02-15T05:53:44;-1.03;93.08
57709;SHT35;42558;52.388;13.390;2023-02-15T05:56:14;-1.07;93.13
57709;SHT35;42558;52.388;13.390;2023-02-15T05:58:43;-1.18;93.18
57709;SHT35;42558;52.388;13.390;2023-02-15T06:01:14;-1.13;93.29
57709;SHT35;42558;52.388;13.390;2023-02-15T06:03:45;-1.15;93.40
57709;SHT35;42558;52.388;13.390;2023-02-15T06:06:13;-1.15;93.48
57709;SHT35;42558;52.388;13.390;2023-02-15T06:08:42;-1.22;93.56
57709;SHT35;42558;52.388;13.390;2023-02-15T06:11:10;-1.19;93.66
57709;SHT35;42558;52.388;13.390;2023-02-15T06:13:38;-1.23;93.70
57709;SHT35;42558;52.388;13.390;2023-02-15T06:16:07;-1.24;93.79
57709;SHT35;42558;52.388;13.390;2023-02-15T06:18:35;-1.22;93.80
57709;SHT35;42558;52.388;13.390;2023-02-15T06:21:03;-1.18;93.83
57709;SHT35;42558;52.388;13.390;2023-02-15T06:23:32;-1.18;93.87
57709;SHT35;42558;52.388;13.390;2023-02-15T06:26:00;-1.24;93.89
57709;SHT35;42558;52.388;13.390;2023-02-15T06:28:29;-1.31;93.90
57709;SHT35;42558;52.388;13.390;2023-02-15T06:30:57;-1.34;93.96
57709;SHT35;42558;52.388;13.390;2023-02-15T06:33:25;-1.32;94.09
57709;SHT35;42558;52.388;13.390;2023-02-15T06:35:54;-1.31;94.16
57709;SHT35;42558;52.388;13.390;2023-02-15T06:38:22;-1.30;94.17
57709;SHT35;42558;52.388;13.390;2023-02-15T06:40:51;-1.24;94.20
57709;SHT35;42558;52.388;13.390;2023-02-15T06:43:19;-1.36;94.12
57709;SHT35;42558;52.388;13.390;2023-02-15T06:45:48;-1.24;94.21
57709;SHT35;42558;52.388;13.390;2023-02-15T06:48:16;-1.22;94.21
57709;SHT35;42558;52.388;13.390;2023-02-15T06:50:44;-1.24;94.21
57709;SHT35;42558;52.388;13.390;2023-02-15T06:53:13;-1.26;94.21
57709;SHT35;42558;52.388;13.390;2023-02-15T06:55:41;-1.33;94.22
57709;SHT35;42558;52.388;13.390;2023-02-15T06:58:10;-1.45;94.21
57709;SHT35;42558;52.388;13.390;2023-02-15T07:00:38;-1.38;94.33
57709;SHT35;42558;52.388;13.390;2023-02-15T07:03:07;-1.27;94.41
57709;SHT35;42558;52.388;13.390;2023-02-15T07:05:35;-1.19;94.49
57709;SHT35;42558;52.388;13.390;2023-02-15T07:08:03;-1.18;94.48
57709;SHT35;42558;52.388;13.390;2023-02-15T07:10:32;-1.20;94.46
57709;SHT35;42558;52.388;13.390;2023-02-15T07:13:00;-1.23;94.41
57709;SHT35;42558;52.388;13.390;2023-02-15T07:15:29;-1.25;94.45
57709;SHT35;42558;52.388;13.390;2023-02-15T07:17:57;-1.21;94.41
57709;SHT35;42558;52.388;13.390;2023-02-15T07:20:26;-1.25;94.41
57709;SHT35;42558;52.388;13.390;2023-02-15T07:22:54;-1.18;94.48
57709;SHT35;42558;52.388;13.390;2023-02-15T07:25:22;-1.24;94.42
57709;SHT35;42558;52.388;13.390;2023-02-15T07:27:57;-1.23;94.41
57709;SHT35;42558;52.388;13.390;2023-02-15T07:30:28;-1.29;94.42
57709;SHT35;42558;52.388;13.390;2023-02-15T07:32:59;-1.24;94.47
57709;SHT35;42558;52.388;13.390;2023-02-15T07:35:52;-1.21;94.50
57709;SHT35;42558;52.388;13.390;2023-02-15T07:38:27;-1.36;94.41
57709;SHT35;42558;52.388;13.390;2023-02-15T07:41:04;-1.32;94.46
57709;SHT35;42558;52.388;13.390;2023-02-15T07:43:38;-1.26;94.52
57709;SHT35;42558;52.388;13.390;2023-02-15T07:46:12;-1.24;94.55
57709;SHT35;42558;52.388;13.390;2023-02-15T07:48:45;-1.20;94.58
57709;SHT35;42558;52.388;13.390;2023-02-15T07:51:14;-1.06;94.60
57709;SHT35;42558;52.388;13.390;2023-02-15T07:53:42;-1.19;94.54
57709;SHT35;42558;52.388;13.390;2023-02-15T07:56:11;-1.21;94.50
57709;SHT35;42558;52.388;13.390;2023-02-15T07:58:42;-1.14;94.50
57709;SHT35;42558;52.388;13.390;2023-02-15T08:01:23;-1.21;94.49
57709;SHT35;42558;52.388;13.390;2023-02-15T08:04:03;-1.25;94.44
57709;SHT35;42558;52.388;13.390;2023-02-15T08:06:35;-1.25;94.44
57709;SHT35;42558;52.388;13.390;2023-02-15T08:09:06;-1.43;94.36
57709;SHT35;42558;52.388;13.390;2023-02-15T08:11:38;-1.46;94.37
57709;SHT35;42558;52.388;13.390;2023-02-15T08:14:15;-1.38;94.44
57709;SHT35;42558;52.388;13.390;2023-02-15T08:16:50;-1.27;94.50
57709;SHT35;42558;52.388;13.390;2023-02-15T08:19:26;-1.24;94.50
57709;SHT35;42558;52.388;13.390;2023-02-15T08:22:00;-1.16;94.50
57709;SHT35;42558;52.388;13.390;2023-02-15T08:24:36;-1.01;94.56
57709;SHT35;42558;52.388;13.390;2023-02-15T08:27:04;-0.87;94.60
57709;SHT35;42558;52.388;13.390;2023-02-15T08:29:35;-0.69;94.61
57709;SHT35;42558;52.388;13.390;2023-02-15T08:32:08;-0.68;94.61
57709;SHT35;42558;52.388;13.390;2023-02-15T08:34:38;-0.63;94.60
57709;SHT35;42558;52.388;13.390;2023-02-15T08:37:09;-0.81;94.48
57709;SHT35;42558;52.388;13.390;2023-02-15T08:39:37;-0.74;94.49
57709;SHT35;42558;52.388;13.390;2023-02-15T08:42:08;-0.70;94.44
57709;SHT35;42558;52.388;13.390;2023-02-15T08:44:39;-0.60;94.50
57709;SHT35;42558;52.388;13.390;2023-02-15T08:47:09;-0.39;94.51
57709;SHT35;42558;52.388;13.390;2023-02-15T08:49:38;-0.23;94.57
57709;SHT35;42558;52.388;13.390;2023-02-15T08:52:08;-0.28;94.51
57709;SHT35;42558;52.388;13.390;2023-02-15T08:54:38;-0.12;94.50
57709;SHT35;42558;52.388;13.390;2023-02-15T08:57:08;-0.23;94.43
57709;SHT35;42558;52.388;13.390;2023-02-15T08:59:38;-0.56;94.11
57709;SHT35;42558;52.388;13.390;2023-02-15T09:02:09;-0.49;94.23
57709;SHT35;42558;52.388;13.390;2023-02-15T09:04:39;-0.17;94.42
57709;SHT35;42558;52.388;13.390;2023-02-15T09:07:09;-0.06;94.44
57709;SHT35;42558;52.388;13.390;2023-02-15T09:09:39;-0.23;94.26
57709;SHT35;42558;52.388;13.390;2023-02-15T09:12:10;-0.30;94.14
57709;SHT35;42558;52.388;13.390;2023-02-15T09:14:43;-0.13;94.26
57709;SHT35;42558;52.388;13.390;2023-02-15T09:17:11;-0.08;94.21
57709;SHT35;42558;52.388;13.390;2023-02-15T09:19:41;-0.07;94.15
57709;SHT35;42558;52.388;13.390;2023-02-15T09:22:11;0.20;94.26
57709;SHT35;42558;52.388;13.390;2023-02-15T09:24:40;0.28;94.29
57709;SHT35;42558;52.388;13.390;2023-02-15T09:27:10;0.15;94.10
57709;SHT35;42558;52.388;13.390;2023-02-15T09:29:40;0.20;94.07
57709;SHT35;42558;52.388;13.390;2023-02-15T09:32:13;0.26;93.97
57709;SHT35;42558;52.388;13.390;2023-02-15T09:34:42;0.20;93.86
57709;SHT35;42558;52.388;13.390;2023-02-15T09:37:12;0.51;94.03
57709;SHT35;42558;52.388;13.390;2023-02-15T09:39:42;0.76;94.11
57709;SHT35;42558;52.388;13.390;2023-02-15T09:42:21;0.82;93.99
57709;SHT35;42558;52.388;13.390;2023-02-15T09:57:10;1.37;93.53
57709;SHT35;42558;52.388;13.390;2023-02-15T10:03:11;1.00;92.46
57709;SHT35;42558;52.388;13.390;2023-02-15T10:28:50;2.27;90.35
57709;SHT35;42558;52.388;13.390;2023-02-15T10:31:28;2.43;90.30
57709;SHT35;42558;52.388;13.390;2023-02-15T10:34:19;2.43;89.52
57709;SHT35;42558;52.388;13.390;2023-02-15T10:55:02;3.57;87.55
57709;SHT35;42558;52.388;13.390;2023-02-15T11:00:45;6.08;79.52
57709;SHT35;42558;52.388;13.390;2023-02-15T11:06:58;7.10;72.49
57709;SHT35;42558;52.388;13.390;2023-02-15T11:09:39;6.43;73.87
57709;SHT35;42558;52.388;13.390;2023-02-15T11:12:22;6.75;74.14
57709;SHT35;42558;52.388;13.390;2023-02-15T11:15:00;7.67;71.75
57709;SHT35;42558;52.388;13.390;2023-02-15T11:17:42;8.13;68.23
57709;SHT35;42558;52.388;13.390;2023-02-15T11:20:24;9.59;65.30
57709;SHT35;42558;52.388;13.390;2023-02-15T11:23:02;11.10;61.31
57709;SHT35;42558;52.388;13.390;2023-02-15T11:25:45;9.74;63.35
57709;SHT35;42558;52.388;13.390;2023-02-15T11:28:29;8.07;69.17
57709;SHT35;42558;52.388;13.390;2023-02-15T11:31:41;7.90;71.12
57709;SHT35;42558;52.388;13.390;2023-02-15T11:34:20;7.39;71.70
57709;SHT35;42558;52.388;13.390;2023-02-15T11:37:35;6.58;74.99
57709;SHT35;42558;52.388;13.390;2023-02-15T11:40:22;6.71;74.57
57709;SHT35;42558;52.388;13.390;2023-02-15T11:43:10;6.33;75.59
57709;SHT35;42558;52.388;13.390;2023-02-15T11:46:11;6.25;76.64
57709;SHT35;42558;52.388;13.390;2023-02-15T11:48:42;6.39;76.75
57709;SHT35;42558;52.388;13.390;2023-02-15T11:51:14;6.58;76.03
57709;SHT35;42558;52.388;13.390;2023-02-15T11:53:52;6.57;75.77
57709;SHT35;42558;52.388;13.390;2023-02-15T11:56:24;6.72;76.16
57709;SHT35;42558;52.388;13.390;2023-02-15T11:58:57;6.81;75.41
57709;SHT35;42558;52.388;13.390;2023-02-15T12:01:33;6.77;75.55
57709;SHT35;42558;52.388;13.390;2023-02-15T12:07:04;6.80;75.50
57709;SHT35;42558;52.388;13.390;2023-02-15T12:12:47;7.14;74.32
57709;SHT35;42558;52.388;13.390;2023-02-15T12:15:17;7.14;74.47
57709;SHT35;42558;52.388;13.390;2023-02-15T12:18:01;7.20;74.62
57709;SHT35;42558;52.388;13.390;2023-02-15T12:20:32;7.25;74.71
57709;SHT35;42558;52.388;13.390;2023-02-15T12:23:08;7.11;74.76
57709;SHT35;42558;52.388;13.390;2023-02-15T12:25:53;7.32;74.81
57709;SHT35;42558;52.388;13.390;2023-02-15T12:28:33;7.41;74.38
57709;SHT35;42558;52.388;13.390;2023-02-15T12:31:25;7.45;73.98
57709;SHT35;42558;52.388;13.390;2023-02-15T12:34:39;7.60;74.29
57709;SHT35;42558;52.388;13.390;2023-02-15T12:37:21;7.79;73.33
57709;SHT35;42558;52.388;13.390;2023-02-15T12:39:57;7.96;72.20
57709;SHT35;42558;52.388;13.390;2023-02-15T12:42:40;8.05;72.01
57709;SHT35;42558;52.388;13.390;2023-02-15T12:45:21;8.23;71.90
57709;SHT35;42558;52.388;13.390;2023-02-15T12:50:42;8.21;72.23
57709;SHT35;42558;52.388;13.390;2023-02-15T12:53:35;8.35;71.78
57709;SHT35;42558;52.388;13.390;2023-02-15T12:56:07;8.48;71.43
57709;SHT35;42558;52.388;13.390;2023-02-15T12:58:38;8.65;70.52
57709;SHT35;42558;52.388;13.390;2023-02-15T13:03:59;8.66;69.10
57709;SHT35;42558;52.388;13.390;2023-02-15T13:06:35;8.71;69.09
57709;SHT35;42558;52.388;13.390;2023-02-15T13:09:17;8.87;69.13
57709;SHT35;42558;52.388;13.390;2023-02-15T13:12:16;8.91;67.65
57709;SHT35;42558;52.388;13.390;2023-02-15T13:14:50;8.93;68.07
57709;SHT35;42558;52.388;13.390;2023-02-15T13:17:28;9.04;67.58
57709;SHT35;42558;52.388;13.390;2023-02-15T13:20:16;9.14;67.40
57709;SHT35;42558;52.388;13.390;2023-02-15T13:22:59;9.23;66.99
57709;SHT35;42558;52.388;13.390;2023-02-15T13:25:39;9.38;66.79
57709;SHT35;42558;52.388;13.390;2023-02-15T13:28:19;9.43;66.30
57709;SHT35;42558;52.388;13.390;2023-02-15T13:30:53;9.48;66.05
57709;SHT35;42558;52.388;13.390;2023-02-15T13:33:31;9.48;65.98
57709;SHT35;42558;52.388;13.390;2023-02-15T13:36:09;9.56;66.09
57709;SHT35;42558;52.388;13.390;2023-02-15T13:39:09;9.62;65.68
57709;SHT35;42558;52.388;13.390;2023-02-15T14:13:03;10.48;64.78
57709;SHT35;42558;52.388;13.390;2023-02-15T14:16:11;10.97;63.88
57709;SHT35;42558;52.388;13.390;2023-02-15T14:18:55;11.98;60.82
57709;SHT35;42558;52.388;13.390;2023-02-15T14:22:02;13.13;60.51
57709;SHT35;42558;52.388;13.390;2023-02-15T14:28:04;12.81;60.81
57709;SHT35;42558;52.388;13.390;2023-02-15T14:30:44;12.73;60.76
57709;SHT35;42558;52.388;13.390;2023-02-15T14:36:05;14.25;56.81
57709;SHT35;42558;52.388;13.390;2023-02-15T14:41:47;15.20;52.72
57709;SHT35;42558;52.388;13.390;2023-02-15T14:44:38;13.48;56.77
57709;SHT35;42558;52.388;13.390;2023-02-15T14:47:34;12.79;59.21
57709;SHT35;42558;52.388;13.390;2023-02-15T15:01:31;10.89;63.36
57709;SHT35;42558;52.388;13.390;2023-02-15T15:04:06;10.85;64.05
57709;SHT35;42558;52.388;13.390;2023-02-15T15:06:59;10.88;64.26
57709;SHT35;42558;52.388;13.390;2023-02-15T15:10:06;10.87;64.46
57709;SHT35;42558;52.388;13.390;2023-02-15T15:19:09;10.87;64.62
57709;SHT35;42558;52.388;13.390;2023-02-15T15:38:38;9.55;68.60
57709;SHT35;42558;52.388;13.390;2023-02-15T15:44:07;9.20;69.44
57709;SHT35;42558;52.388;13.390;2023-02-15T15:50:14;8.63;71.33
57709;SHT35;42558;52.388;13.390;2023-02-15T15:52:50;8.45;71.94
57709;SHT35;42558;52.388;13.390;2023-02-15T15:55:27;8.34;72.42
57709;SHT35;42558;52.388;13.390;2023-02-15T15:58:05;8.22;72.54
57709;SHT35;42558;52.388;13.390;2023-02-15T16:00:44;8.06;72.89
57709;SHT35;42558;52.388;13.390;2023-02-15T16:03:21;7.90;73.58
57709;SHT35;42558;52.388;13.390;2023-02-15T16:05:52;7.80;73.81
57709;SHT35;42558;52.388;13.390;2023-02-15T16:08:32;7.64;73.86
57709;SHT35;42558;52.388;13.390;2023-02-15T16:11:16;7.43;74.31
57709;SHT35;42558;52.388;13.390;2023-02-15T16:13:52;7.26;74.92
57709;SHT35;42558;52.388;13.390;2023-02-15T16:16:27;7.05;75.38
57709;SHT35;42558;52.388;13.390;2023-02-15T16:18:57;6.90;76.11
57709;SHT35;42558;52.388;13.390;2023-02-15T16:21:30;6.79;76.56
57709;SHT35;42558;52.388;13.390;2023-02-15T16:27:04;6.49;76.81
57709;SHT35;42558;52.388;13.390;2023-02-15T16:33:12;6.06;78.95
57709;SHT35;42558;52.388;13.390;2023-02-15T16:35:57;5.93;78.91
57709;SHT35;42558;52.388;13.390;2023-02-15T16:41:11;5.68;80.12
57709;SHT35;42558;52.388;13.390;2023-02-15T16:43:58;5.53;79.98
57709;SHT35;42558;52.388;13.390;2023-02-15T16:46:41;5.42;80.30
57709;SHT35;42558;52.388;13.390;2023-02-15T16:49:19;5.34;80.76
57709;SHT35;42558;52.388;13.390;2023-02-15T16:51:55;5.27;81.08
57709;SHT35;42558;52.388;13.390;2023-02-15T16:54:30;5.13;81.03
57709;SHT35;42558;52.388;13.390;2023-02-15T16:57:02;5.05;81.41
57709;SHT35;42558;52.388;13.390;2023-02-15T16:59:39;4.94;81.45
57709;SHT35;42558;52.388;13.390;2023-02-15T17:02:21;4.81;81.69
57709;SHT35;42558;52.388;13.390;2023-02-15T17:05:21;4.71;82.03
57709;SHT35;42558;52.388;13.390;2023-02-15T17:10:36;4.59;82.30
57709;SHT35;42558;52.388;13.390;2023-02-15T17:13:11;4.53;82.41
57709;SHT35;42558;52.388;13.390;2023-02-15T17:18:27;4.36;82.55
57709;SHT35;42558;52.388;13.390;2023-02-15T17:21:00;4.28;82.70
57709;SHT35;42558;52.388;13.390;2023-02-15T17:23:41;4.12;82.52
57709;SHT35;42558;52.388;13.390;2023-02-15T17:26:17;4.01;82.82
57709;SHT35;42558;52.388;13.390;2023-02-15T17:28:59;3.92;83.11
57709;SHT35;42558;52.388;13.390;2023-02-15T17:31:52;3.84;83.58
57709;SHT35;42558;52.388;13.390;2023-02-15T17:40:26;3.70;84.72
57709;SHT35;42558;52.388;13.390;2023-02-15T17:43:01;3.61;84.58
57709;SHT35;42558;52.388;13.390;2023-02-15T17:45:31;3.55;84.56
57709;SHT35;42558;52.388;13.390;2023-02-15T17:48:05;3.43;84.51
57709;SHT35;42558;52.388;13.390;2023-02-15T17:50:35;3.34;84.59
57709;SHT35;42558;52.388;13.390;2023-02-15T17:53:07;3.28;84.79
57709;SHT35;42558;52.388;13.390;2023-02-15T17:55:38;3.23;84.93
57709;SHT35;42558;52.388;13.390;2023-02-15T17:58:15;3.18;85.01
57709;SHT35;42558;52.388;13.390;2023-02-15T18:00:52;3.12;85.16
57709;SHT35;42558;52.388;13.390;2023-02-15T18:03:49;3.04;85.20
57709;SHT35;42558;52.388;13.390;2023-02-15T18:06:40;2.95;85.30
57709;SHT35;42558;52.388;13.390;2023-02-15T18:09:32;2.91;85.52
57709;SHT35;42558;52.388;13.390;2023-02-15T18:12:22;2.83;85.54
57709;SHT35;42558;52.388;13.390;2023-02-15T18:14:58;2.78;85.70
57709;SHT35;42558;52.388;13.390;2023-02-15T18:17:31;2.72;85.74
57709;SHT35;42558;52.388;13.390;2023-02-15T18:20:17;2.67;85.90
57709;SHT35;42558;52.388;13.390;2023-02-15T18:22:53;2.63;86.08
57709;SHT35;42558;52.388;13.390;2023-02-15T18:25:23;2.59;86.11
57709;SHT35;42558;52.388;13.390;2023-02-15T18:27:54;2.54;86.13
57709;SHT35;42558;52.388;13.390;2023-02-15T18:30:24;2.50;86.13
57709;SHT35;42558;52.388;13.390;2023-02-15T18:32:55;2.46;86.24
57709;SHT35;42558;52.388;13.390;2023-02-15T18:35:28;2.45;86.51
57709;SHT35;42558;52.388;13.390;2023-02-15T18:38:01;2.43;86.68
57709;SHT35;42558;52.388;13.390;2023-02-15T18:40:31;2.39;86.68
57709;SHT35;42558;52.388;13.390;2023-02-15T18:43:01;2.32;86.61
57709;SHT35;42558;52.388;13.390;2023-02-15T18:45:31;2.25;86.67
57709;SHT35;42558;52.388;13.390;2023-02-15T18:48:01;2.24;86.89
57709;SHT35;42558;52.388;13.390;2023-02-15T18:50:32;2.22;86.94
57709;SHT35;42558;52.388;13.390;2023-02-15T18:53:05;2.18;86.96
57709;SHT35;42558;52.388;13.390;2023-02-15T18:55:46;2.14;87.03
57709;SHT35;42558;52.388;13.390;2023-02-15T18:58:19;2.15;87.20
57709;SHT35;42558;52.388;13.390;2023-02-15T19:00:52;2.14;87.36
57709;SHT35;42558;52.388;13.390;2023-02-15T19:03:23;2.09;87.30
57709;SHT35;42558;52.388;13.390;2023-02-15T19:05:53;2.04;87.30
57709;SHT35;42558;52.388;13.390;2023-02-15T19:08:22;2.00;87.43
57709;SHT35;42558;52.388;13.390;2023-02-15T19:10:59;1.95;87.44
57709;SHT35;42558;52.388;13.390;2023-02-15T19:13:30;1.92;87.62
57709;SHT35;42558;52.388;13.390;2023-02-15T19:16:00;1.90;87.65
57709;SHT35;42558;52.388;13.390;2023-02-15T19:18:30;1.84;87.62
57709;SHT35;42558;52.388;13.390;2023-02-15T19:20:57;1.75;87.59
57709;SHT35;42558;52.388;13.390;2023-02-15T19:23:24;1.70;87.60
57709;SHT35;42558;52.388;13.390;2023-02-15T19:25:55;1.63;87.61
57709;SHT35;42558;52.388;13.390;2023-02-15T19:28:28;1.60;87.73
57709;SHT35;42558;52.388;13.390;2023-02-15T19:31:02;1.59;87.87
57709;SHT35;42558;52.388;13.390;2023-02-15T19:33:32;1.51;87.68
57709;SHT35;42558;52.388;13.390;2023-02-15T19:36:04;1.48;87.89
57709;SHT35;42558;52.388;13.390;2023-02-15T19:38:40;1.45;87.94
57709;SHT35;42558;52.388;13.390;2023-02-15T19:41:22;1.42;88.07
57709;SHT35;42558;52.388;13.390;2023-02-15T19:43:59;1.38;88.13